Time;durP1;ratioP1;P1;durP2;ratioP2;P2;SDS_P1;SDS_P2;PMS_P1;PMS_P2;Temp;Humidity;BMP_temperature;BMP_pressure;BME280_temperature;BME280_humidity;BME280_pressure;Samples;Min_cycle;Max_cycle;Signal;HPM_P1;HPM_P2
2023/01/15 00:02:16;;;;;;;7.95;5.90;;;9.50;99.90;;;;;;5060173;28;20530;-72
2023/01/15 00:04:43;;;;;;;9.60;6.70;;;9.50;99.90;;;;;;5070000;28;20379;-73
2023/01/15 00:07:11;;;;;;;11.43;6.15;;;9.50;99.90;;;;;;5062488;28;20045;-72
2023/01/15 00:09:38;;;;;;;11.82;7.75;;;9.60;99.90;;;;;;5070266;28;20056;-72
2023/01/15 00:12:06;;;;;;;9.82;7.75;;;9.60;99.90;;;;;;5053002;28;20064;-72
2023/01/15 00:14:34;;;;;;;12.05;6.68;;;9.50;99.90;;;;;;5068878;28;20048;-72
2023/01/15 00:17:01;;;;;;;14.10;8.13;;;9.50;99.90;;;;;;5060375;28;20479;-73
2023/01/15 00:19:28;;;;;;;13.35;7.55;;;9.50;99.90;;;;;;5084118;28;20041;-72
2023/01/15 00:21:57;;;;;;;9.52;6.30;;;9.40;99.90;;;;;;5061781;28;20441;-72
2023/01/15 00:29:56;;;;;;;11.23;7.13;;;9.30;99.90;;;;;;5070153;28;20039;-73
2023/01/15 00:32:26;;;;;;;18.05;6.88;;;9.40;99.90;;;;;;5067502;28;20468;-72
2023/01/15 00:34:55;;;;;;;13.15;7.10;;;9.40;99.90;;;;;;5069728;28;20068;-74
2023/01/15 00:37:22;;;;;;;9.73;8.57;;;9.40;99.90;;;;;;5070669;28;20398;-73
2023/01/15 00:39:53;;;;;;;9.38;7.28;;;9.40;99.90;;;;;;5070842;28;20102;-72
2023/01/15 00:42:20;;;;;;;11.45;7.32;;;9.40;99.90;;;;;;5070373;28;20044;-73
2023/01/15 00:44:48;;;;;;;10.30;6.47;;;9.30;99.90;;;;;;5071702;28;20143;-72
2023/01/15 00:47:15;;;;;;;14.75;8.13;;;9.40;99.90;;;;;;5070078;28;20131;-72
2023/01/15 00:49:44;;;;;;;12.63;8.18;;;9.40;99.90;;;;;;5071643;28;20150;-72
2023/01/15 00:52:12;;;;;;;11.90;7.45;;;9.40;99.90;;;;;;5070670;28;20064;-72
2023/01/15 00:54:39;;;;;;;12.18;9.95;;;9.40;99.90;;;;;;5070122;28;20133;-72
2023/01/15 00:57:10;;;;;;;11.77;8.30;;;9.40;99.90;;;;;;5071598;28;20068;-72
2023/01/15 00:59:37;;;;;;;10.13;6.45;;;9.40;99.90;;;;;;5070125;28;20399;-72
2023/01/15 01:02:05;;;;;;;10.75;6.72;;;9.40;99.90;;;;;;5036840;28;20147;-73
2023/01/15 01:04:34;;;;;;;8.82;6.68;;;9.40;99.90;;;;;;5069663;28;20395;-73
2023/01/15 01:07:01;;;;;;;11.38;7.20;;;9.40;99.90;;;;;;5070115;28;20490;-73
2023/01/15 01:09:28;;;;;;;12.50;7.72;;;9.40;99.90;;;;;;5071190;28;20086;-72
2023/01/15 01:11:56;;;;;;;13.75;8.68;;;9.40;99.90;;;;;;5069992;28;20048;-72
2023/01/15 01:14:23;;;;;;;11.73;7.35;;;9.40;99.90;;;;;;5053281;28;20052;-72
2023/01/15 01:16:51;;;;;;;10.68;6.95;;;9.40;99.90;;;;;;5070850;28;20052;-73
2023/01/15 01:19:21;;;;;;;8.90;6.68;;;9.40;99.90;;;;;;5069558;28;20040;-72
2023/01/15 01:21:50;;;;;;;10.45;7.00;;;9.50;99.90;;;;;;5069940;28;20037;-72
2023/01/15 01:24:19;;;;;;;9.45;6.80;;;9.40;99.90;;;;;;5053062;28;20056;-72
2023/01/15 01:26:47;;;;;;;10.82;7.70;;;9.50;99.90;;;;;;5052215;28;20062;-73
2023/01/15 01:29:21;;;;;;;10.77;7.57;;;9.50;99.90;;;;;;5070830;28;20052;-72
2023/01/15 01:31:49;;;;;;;10.13;6.57;;;9.50;99.90;;;;;;5052870;28;20048;-73
2023/01/15 01:34:19;;;;;;;10.95;7.15;;;9.50;99.90;;;;;;5070712;28;20111;-73
2023/01/15 01:36:46;;;;;;;9.00;6.03;;;9.50;99.90;;;;;;5069528;28;20147;-73
2023/01/15 01:39:16;;;;;;;15.80;6.60;;;9.40;99.90;;;;;;5052881;28;20041;-73
2023/01/15 01:41:45;;;;;;;9.68;6.55;;;9.40;99.90;;;;;;5069450;28;20155;-73
2023/01/15 01:44:32;;;;;;;10.13;6.38;;;9.40;99.90;;;;;;5036277;28;20048;-73
2023/01/15 01:47:17;;;;;;;11.95;7.72;;;9.40;99.90;;;;;;5069532;28;20502;-73
2023/01/15 01:49:48;;;;;;;19.25;7.47;;;9.30;99.90;;;;;;5069224;28;20041;-72
2023/01/15 01:52:22;;;;;;;10.43;6.40;;;9.30;99.90;;;;;;5069078;28;20102;-72
2023/01/15 01:54:51;;;;;;;13.30;7.82;;;9.30;99.90;;;;;;5034599;28;20045;-73
2023/01/15 01:57:21;;;;;;;9.13;7.07;;;9.20;99.90;;;;;;5069596;28;20040;-72
2023/01/15 01:59:49;;;;;;;15.52;7.70;;;9.10;99.90;;;;;;5069386;28;20127;-73
2023/01/15 02:02:19;;;;;;;11.52;8.05;;;9.10;99.90;;;;;;5070427;28;20398;-73
2023/01/15 02:04:47;;;;;;;12.45;8.05;;;9.10;99.90;;;;;;5068846;28;20177;-73
2023/01/15 02:07:16;;;;;;;10.82;7.55;;;9.10;99.90;;;;;;5069137;28;20605;-72
2023/01/15 02:09:43;;;;;;;12.23;8.25;;;9.00;99.90;;;;;;5052594;28;20068;-72
2023/01/15 02:12:33;;;;;;;11.30;7.82;;;9.00;99.90;;;;;;5068491;28;20128;-73
2023/01/15 02:15:20;;;;;;;12.90;7.90;;;9.00;99.90;;;;;;5068705;28;20048;-72
2023/01/15 02:18:00;;;;;;;12.73;6.97;;;9.00;99.90;;;;;;5068752;28;20063;-72
2023/01/15 02:20:42;;;;;;;11.80;7.18;;;9.10;99.90;;;;;;5070040;28;20040;-72
2023/01/15 02:23:43;;;;;;;12.05;6.60;;;9.10;99.90;;;;;;5052243;28;20107;-72
2023/01/15 02:26:29;;;;;;;16.27;7.50;;;9.10;99.90;;;;;;5070002;28;20041;-73
2023/01/15 02:28:59;;;;;;;11.55;7.32;;;9.10;99.90;;;;;;5052437;28;20128;-72
2023/01/15 02:31:34;;;;;;;9.88;6.47;;;9.10;99.90;;;;;;5068575;28;20078;-72
2023/01/15 02:34:21;;;;;;;8.82;6.28;;;9.00;99.90;;;;;;5068545;28;20124;-73
2023/01/15 02:36:56;;;;;;;7.63;5.43;;;9.00;99.90;;;;;;5051835;28;20098;-73
2023/01/15 02:39:29;;;;;;;10.25;6.60;;;9.00;99.90;;;;;;5052066;28;20291;-72
2023/01/15 02:42:01;;;;;;;10.52;5.80;;;9.10;99.90;;;;;;5052240;28;20037;-72
2023/01/15 02:44:40;;;;;;;10.80;6.35;;;9.10;99.90;;;;;;5068372;28;20078;-72
2023/01/15 02:47:12;;;;;;;7.30;5.53;;;9.00;99.90;;;;;;5070538;28;20058;-72
2023/01/15 02:49:41;;;;;;;9.23;5.95;;;9.00;99.90;;;;;;5072481;28;20056;-73
2023/01/15 02:52:21;;;;;;;8.60;4.82;;;9.00;99.90;;;;;;5056859;28;20044;-73
2023/01/15 02:55:16;;;;;;;12.10;6.15;;;9.00;99.90;;;;;;5055870;28;20068;-72
2023/01/15 02:57:47;;;;;;;10.25;6.45;;;9.00;99.90;;;;;;5072500;28;20044;-72
2023/01/15 03:00:18;;;;;;;11.20;6.18;;;8.90;99.90;;;;;;5056532;28;20040;-72
2023/01/15 03:03:06;;;;;;;11.50;6.85;;;8.90;99.90;;;;;;5072441;28;20398;-72
2023/01/15 03:05:47;;;;;;;11.25;6.72;;;8.90;99.90;;;;;;5073541;28;20435;-72
2023/01/15 03:08:17;;;;;;;10.25;6.55;;;8.90;99.90;;;;;;5072378;28;20033;-73
2023/01/15 03:11:00;;;;;;;11.20;7.05;;;8.80;99.90;;;;;;5055757;28;20118;-73
2023/01/15 03:13:34;;;;;;;10.68;6.07;;;8.80;99.90;;;;;;5072103;28;20049;-72
2023/01/15 03:16:33;;;;;;;14.35;7.07;;;8.70;99.90;;;;;;5072116;28;20036;-72
2023/01/15 03:19:30;;;;;;;11.05;6.25;;;8.70;99.90;;;;;;5065830;28;20075;-72
2023/01/15 03:22:30;;;;;;;19.17;9.85;;;8.60;99.90;;;;;;5052054;28;20123;-72
2023/01/15 03:25:26;;;;;;;19.75;10.32;;;8.60;99.90;;;;;;5071526;28;20389;-72
2023/01/15 03:27:57;;;;;;;;;;;8.60;99.90;;;;;;5071297;28;20404;-72
2023/01/15 03:30:26;;;;;;;17.67;10.25;;;8.60;99.90;;;;;;5071996;28;19920;-72
2023/01/15 03:32:54;;;;;;;17.25;9.45;;;8.60;99.90;;;;;;5072993;28;20040;-72
2023/01/15 03:35:46;;;;;;;12.98;7.90;;;8.50;99.90;;;;;;5071198;28;20041;-72
2023/01/15 03:38:31;;;;;;;11.55;8.52;;;8.50;99.90;;;;;;5055712;28;20056;-73
2023/01/15 03:40:59;;;;;;;13.82;8.10;;;8.50;99.90;;;;;;5072094;28;20045;-73
2023/01/15 03:43:58;;;;;;;12.25;7.97;;;8.50;99.90;;;;;;5054960;28;20041;-72
2023/01/15 03:46:49;;;;;;;16.27;10.30;;;8.40;99.90;;;;;;5068485;28;20118;-72
2023/01/15 03:49:32;;;;;;;12.32;8.32;;;8.40;99.90;;;;;;5051769;28;20047;-72
2023/01/15 03:52:11;;;;;;;13.30;6.82;;;8.20;99.90;;;;;;5068075;28;20033;-72
2023/01/15 03:54:44;;;;;;;11.52;6.80;;;8.20;99.90;;;;;;5071495;28;20036;-73
2023/01/15 03:57:35;;;;;;;14.30;8.02;;;8.20;99.90;;;;;;5054592;28;20158;-72
2023/01/15 04:00:21;;;;;;;9.82;6.68;;;8.20;99.90;;;;;;5054875;28;20051;-72
2023/01/15 04:02:55;;;;;;;10.63;7.30;;;8.20;99.90;;;;;;5071190;28;20045;-72
2023/01/15 04:05:27;;;;;;;10.85;6.63;;;8.20;99.90;;;;;;5071159;28;20727;-72
2023/01/15 04:07:56;;;;;;;10.82;6.50;;;8.10;99.90;;;;;;5054791;28;20048;-72
2023/01/15 04:10:24;;;;;;;10.30;6.60;;;8.10;99.90;;;;;;5072512;28;20041;-72
2023/01/15 04:12:52;;;;;;;9.73;6.55;;;8.00;99.90;;;;;;5054649;28;20060;-72
2023/01/15 04:15:20;;;;;;;10.57;7.85;;;8.00;99.90;;;;;;5050575;28;20037;-72
2023/01/15 04:17:48;;;;;;;9.27;6.95;;;8.00;99.90;;;;;;5051041;28;20045;-72
2023/01/15 04:20:16;;;;;;;9.25;6.18;;;8.00;99.90;;;;;;5038146;28;20428;-72
2023/01/15 04:22:45;;;;;;;9.13;5.90;;;8.10;99.90;;;;;;5051372;28;20434;-73
2023/01/15 04:25:12;;;;;;;9.40;6.22;;;8.00;99.90;;;;;;5070803;28;20048;-73
2023/01/15 04:27:40;;;;;;;9.05;5.10;;;8.10;99.90;;;;;;5072084;28;20818;-72
2023/01/15 04:30:08;;;;;;;7.18;4.97;;;8.10;99.90;;;;;;5072016;28;20044;-72
2023/01/15 04:32:35;;;;;;;12.02;5.43;;;8.20;99.90;;;;;;5072017;28;20123;-72
2023/01/15 04:35:03;;;;;;;8.75;5.55;;;8.20;99.90;;;;;;5071932;28;20033;-72
2023/01/15 04:37:30;;;;;;;8.57;5.35;;;8.30;99.90;;;;;;5071756;28;20056;-72
2023/01/15 04:39:58;;;;;;;9.07;5.53;;;8.30;99.90;;;;;;5072006;28;20151;-72
2023/01/15 04:45:11;;;;;;;8.50;5.13;;;8.40;99.90;;;;;;5066083;28;20390;-72
2023/01/15 04:47:39;;;;;;;8.93;5.43;;;8.50;99.90;;;;;;5070535;28;20131;-73
2023/01/15 04:50:07;;;;;;;6.78;4.07;;;8.50;99.90;;;;;;5071862;28;20068;-72
2023/01/15 04:52:35;;;;;;;8.43;4.47;;;8.60;99.90;;;;;;5071418;28;20048;-73
2023/01/15 04:55:03;;;;;;;6.28;4.50;;;8.60;99.90;;;;;;5071311;28;20066;-72
2023/01/15 04:57:31;;;;;;;6.40;4.93;;;8.60;99.90;;;;;;5070142;28;20179;-72
2023/01/15 04:59:58;;;;;;;9.98;5.00;;;8.70;99.90;;;;;;5071599;28;20052;-72
2023/01/15 05:02:25;;;;;;;8.07;5.25;;;8.70;99.90;;;;;;5071533;28;20612;-73
2023/01/15 05:04:53;;;;;;;6.90;5.03;;;8.70;99.90;;;;;;5048431;28;20044;-72
2023/01/15 05:07:21;;;;;;;7.25;4.40;;;8.70;99.90;;;;;;5069788;28;20045;-72
2023/01/15 05:09:50;;;;;;;11.57;5.90;;;8.70;99.90;;;;;;5070601;28;20101;-72
2023/01/15 05:12:18;;;;;;;9.63;5.57;;;8.70;99.90;;;;;;5071460;28;20047;-72
2023/01/15 05:14:45;;;;;;;11.23;5.72;;;8.70;99.90;;;;;;5070968;28;20120;-72
2023/01/15 05:17:13;;;;;;;8.40;5.15;;;8.70;99.90;;;;;;5052914;28;20060;-73
2023/01/15 05:19:40;;;;;;;7.32;5.22;;;8.60;99.90;;;;;;5069729;28;20071;-72
2023/01/15 05:22:08;;;;;;;8.50;4.65;;;8.70;99.90;;;;;;5052456;28;20072;-72
2023/01/15 05:24:36;;;;;;;7.55;5.05;;;8.70;99.90;;;;;;5070504;28;20123;-72
2023/01/15 05:27:04;;;;;;;9.68;4.90;;;8.70;99.90;;;;;;5053224;28;20052;-73
2023/01/15 05:29:32;;;;;;;6.78;4.53;;;8.70;99.90;;;;;;5070842;28;20052;-72
2023/01/15 05:31:59;;;;;;;6.15;4.32;;;8.70;99.90;;;;;;5069519;28;20052;-72
2023/01/15 05:34:27;;;;;;;6.20;4.22;;;8.70;99.90;;;;;;5053147;28;20048;-72
2023/01/15 05:36:54;;;;;;;8.32;4.53;;;8.70;99.90;;;;;;5069457;28;20047;-72
2023/01/15 05:39:22;;;;;;;8.55;4.80;;;8.70;99.90;;;;;;5070348;28;20041;-72
2023/01/15 05:41:49;;;;;;;5.63;4.43;;;8.70;99.90;;;;;;5052521;28;20596;-72
2023/01/15 05:44:27;;;;;;;8.10;5.18;;;8.70;99.90;;;;;;5069278;28;20051;-72
2023/01/15 05:47:01;;;;;;;8.13;4.68;;;8.70;99.90;;;;;;5052756;28;20138;-72
2023/01/15 05:49:30;;;;;;;7.55;4.72;;;8.60;99.90;;;;;;5070419;28;20045;-72
2023/01/15 05:51:59;;;;;;;10.25;4.28;;;8.70;99.90;;;;;;5069166;28;20068;-72
2023/01/15 05:54:29;;;;;;;7.05;4.97;;;8.60;99.90;;;;;;5052638;28;20418;-72
2023/01/15 05:56:57;;;;;;;5.78;4.43;;;8.60;99.90;;;;;;5052518;28;20047;-72
2023/01/15 05:59:26;;;;;;;8.02;4.97;;;8.60;99.90;;;;;;5068816;28;20076;-72
2023/01/15 06:01:55;;;;;;;9.13;5.97;;;8.60;99.90;;;;;;5069420;28;20167;-72
2023/01/15 06:04:24;;;;;;;9.90;6.53;;;8.60;99.90;;;;;;5068939;28;20048;-73
2023/01/15 06:06:53;;;;;;;10.02;6.10;;;8.60;99.90;;;;;;5068980;28;20482;-72
2023/01/15 06:09:22;;;;;;;10.02;6.25;;;8.50;99.90;;;;;;5068866;28;20422;-72
2023/01/15 06:11:50;;;;;;;16.25;7.20;;;8.50;99.90;;;;;;5068947;28;20051;-73
2023/01/15 06:14:18;;;;;;;13.05;7.72;;;8.40;99.90;;;;;;5051487;28;20162;-72
2023/01/15 06:16:45;;;;;;;8.57;6.18;;;8.40;99.90;;;;;;5052011;28;20367;-72
2023/01/15 06:19:13;;;;;;;10.32;7.75;;;8.40;99.90;;;;;;5068749;28;20037;-72
2023/01/15 06:21:41;;;;;;;9.73;6.65;;;8.50;99.90;;;;;;5069026;28;20052;-72
2023/01/15 06:24:08;;;;;;;9.82;6.60;;;8.70;99.90;;;;;;5068796;28;20039;-73
2023/01/15 06:26:38;;;;;;;8.32;6.30;;;9.10;99.90;;;;;;5069803;28;20037;-72
2023/01/15 06:29:06;;;;;;;8.57;6.35;;;9.40;99.90;;;;;;5070104;28;20383;-72
2023/01/15 06:31:33;;;;;;;12.32;8.27;;;9.80;99.90;;;;;;5068631;28;20040;-72
2023/01/15 06:34:01;;;;;;;11.77;7.70;;;10.20;99.90;;;;;;5068744;28;20403;-73
2023/01/15 06:36:29;;;;;;;11.23;7.63;;;10.60;99.90;;;;;;5069706;28;20132;-72
2023/01/15 06:38:57;;;;;;;10.55;7.45;;;11.00;99.90;;;;;;5068682;28;20398;-72
2023/01/15 06:47:19;;;;;;;13.88;8.00;;;12.60;99.90;;;;;;5068427;28;20052;-73
2023/01/15 06:49:54;;;;;;;11.75;7.13;;;13.10;99.90;;;;;;5052290;28;20439;-72
2023/01/15 06:52:23;;;;;;;19.25;10.40;;;13.80;99.90;;;;;;5068507;28;20040;-72
2023/01/15 06:54:51;;;;;;;15.30;10.93;;;14.40;99.90;;;;;;5051370;28;20490;-72
2023/01/15 06:57:19;;;;;;;14.55;8.45;;;15.00;99.90;;;;;;5068127;28;20091;-72
2023/01/15 06:59:48;;;;;;;11.52;7.20;;;15.50;99.90;;;;;;5031713;28;20064;-72
2023/01/15 07:02:16;;;;;;;10.35;6.47;;;16.00;99.90;;;;;;5049689;28;20126;-72
2023/01/15 07:04:45;;;;;;;10.18;6.20;;;16.50;99.90;;;;;;5064043;28;20079;-72
2023/01/15 07:07:15;;;;;;;9.45;5.18;;;16.90;99.90;;;;;;5067947;28;20148;-72
2023/01/15 07:09:42;;;;;;;7.03;5.38;;;17.40;99.90;;;;;;5048284;28;20048;-72
2023/01/15 07:12:10;;;;;;;7.53;4.45;;;17.80;99.90;;;;;;5049424;28;20049;-72
2023/01/15 07:14:38;;;;;;;6.03;3.35;;;18.30;99.90;;;;;;5062789;28;20469;-71
2023/01/15 07:17:05;;;;;;;9.13;4.65;;;18.70;99.90;;;;;;5069331;28;20063;-72
2023/01/15 07:19:33;;;;;;;7.00;4.15;;;19.10;99.90;;;;;;5067894;28;20052;-72
2023/01/15 07:22:00;;;;;;;9.60;4.30;;;19.50;99.90;;;;;;5067592;28;20360;-72
2023/01/15 07:24:28;;;;;;;7.07;3.95;;;20.00;99.50;;;;;;5069181;28;20037;-71
2023/01/15 07:26:56;;;;;;;6.70;4.50;;;20.60;98.80;;;;;;5068168;28;20045;-72
2023/01/15 07:29:23;;;;;;;6.18;3.95;;;21.00;98.00;;;;;;5067868;28;20510;-72
2023/01/15 07:31:51;;;;;;;6.07;3.88;;;21.50;97.40;;;;;;5068063;28;20033;-72
2023/01/15 07:34:19;;;;;;;5.60;3.97;;;21.90;96.90;;;;;;5072967;28;20040;-72
2023/01/15 07:36:47;;;;;;;7.25;4.25;;;22.10;96.50;;;;;;5071648;28;20083;-73
2023/01/15 07:39:14;;;;;;;7.32;3.72;;;22.30;96.00;;;;;;5071397;28;20163;-71
2023/01/15 07:50:19;;;;;;;7.20;4.50;;;21.90;95.90;;;;;;5071518;28;20072;-72
2023/01/15 07:52:46;;;;;;;;;;;21.60;96.10;;;;;;5073693;28;20175;-72
2023/01/15 07:55:14;;;;;;;8.55;5.25;;;21.10;96.60;;;;;;5072807;28;19938;-71
2023/01/15 07:57:42;;;;;;;8.30;5.63;;;20.60;96.80;;;;;;5071085;28;20123;-71
2023/01/15 08:00:14;;;;;;;6.90;4.50;;;20.20;97.40;;;;;;5072741;28;20044;-72
2023/01/15 08:02:43;;;;;;;6.75;4.28;;;19.70;97.80;;;;;;5071450;28;20391;-72
2023/01/15 08:05:11;;;;;;;6.65;4.60;;;19.40;98.30;;;;;;5072511;28;20134;-72
2023/01/15 08:07:40;;;;;;;7.57;4.80;;;18.90;99.00;;;;;;5072299;28;20131;-72
2023/01/15 08:10:11;;;;;;;6.40;4.55;;;18.90;99.60;;;;;;5072367;28;20079;-72
2023/01/15 08:15:25;;;;;;;6.72;4.25;;;18.90;99.80;;;;;;5072647;28;20517;-72
2023/01/15 08:17:53;;;;;;;5.57;3.90;;;19.00;99.80;;;;;;5071034;28;20056;-72
2023/01/15 08:20:23;;;;;;;9.38;4.82;;;18.90;99.60;;;;;;5054333;28;20045;-73
2023/01/15 08:22:51;;;;;;;8.20;5.20;;;18.90;99.90;;;;;;5071309;28;20044;-72
2023/01/15 08:25:21;;;;;;;9.15;4.93;;;18.80;99.70;;;;;;5072584;28;20131;-73
2023/01/15 08:27:49;;;;;;;8.73;5.40;;;18.80;99.90;;;;;;5070941;28;20495;-72
2023/01/15 08:30:19;;;;;;;7.70;4.53;;;18.70;99.90;;;;;;5072368;28;20044;-73
2023/01/15 08:32:47;;;;;;;8.02;4.75;;;18.60;99.90;;;;;;5072191;28;20040;-73
2023/01/15 08:35:15;;;;;;;7.97;4.82;;;18.60;99.90;;;;;;5070578;28;20079;-72
2023/01/15 08:37:43;;;;;;;6.72;4.85;;;18.40;99.90;;;;;;5069761;28;20076;-72
2023/01/15 08:40:11;;;;;;;10.70;5.57;;;18.30;99.90;;;;;;5067273;28;20045;-74
2023/01/15 08:42:39;;;;;;;8.93;5.80;;;18.20;99.90;;;;;;5068310;28;20098;-72
2023/01/15 08:45:08;;;;;;;8.38;4.97;;;18.00;99.90;;;;;;5064695;28;20511;-71
2023/01/15 08:47:36;;;;;;;10.75;6.05;;;17.80;99.90;;;;;;5069960;28;20040;-71
2023/01/15 08:50:07;;;;;;;9.20;6.15;;;17.60;99.90;;;;;;5069172;28;20056;-73
2023/01/15 08:52:36;;;;;;;10.27;7.55;;;17.40;99.90;;;;;;5070830;28;20498;-72
2023/01/15 08:55:05;;;;;;;10.07;7.45;;;17.10;99.90;;;;;;5070316;28;20455;-71
2023/01/15 08:57:33;;;;;;;11.45;6.68;;;17.10;99.90;;;;;;5071168;28;20124;-72
2023/01/15 09:00:01;;;;;;;9.60;6.10;;;17.00;99.90;;;;;;5070242;28;20048;-71
2023/01/15 09:02:29;;;;;;;8.38;4.82;;;17.10;99.90;;;;;;5070210;28;20056;-71
2023/01/15 09:04:57;;;;;;;6.65;4.97;;;17.10;99.90;;;;;;5069991;28;20044;-72
2023/01/15 09:07:25;;;;;;;11.30;8.20;;;17.20;99.90;;;;;;5071107;28;20044;-71
2023/01/15 09:09:53;;;;;;;13.32;7.05;;;17.20;99.90;;;;;;5070250;28;20055;-71
2023/01/15 09:12:23;;;;;;;10.05;5.93;;;17.30;99.90;;;;;;5070357;28;20048;-70
2023/01/15 09:14:51;;;;;;;7.68;4.60;;;17.30;99.90;;;;;;5071252;28;20040;-72
2023/01/15 09:17:19;;;;;;;6.18;4.25;;;17.20;99.90;;;;;;5070753;28;20082;-75
2023/01/15 09:19:46;;;;;;;7.05;4.18;;;17.40;99.90;;;;;;5036901;28;20048;-71
2023/01/15 09:22:14;;;;;;;7.45;4.90;;;17.50;99.90;;;;;;5069661;28;20102;-72
2023/01/15 09:24:41;;;;;;;6.93;5.07;;;17.70;99.90;;;;;;5071094;28;20040;-73
2023/01/15 09:27:12;;;;;;;7.40;4.93;;;17.80;99.90;;;;;;5071143;28;20076;-71
2023/01/15 09:29:40;;;;;;;6.00;5.00;;;17.80;99.90;;;;;;5070661;28;20131;-73
2023/01/15 09:32:09;;;;;;;9.02;6.22;;;17.80;99.90;;;;;;5070882;28;20044;-71
2023/01/15 09:34:36;;;;;;;7.35;4.88;;;17.80;99.90;;;;;;5070913;28;20041;-72
2023/01/15 09:37:04;;;;;;;7.65;4.65;;;17.90;99.90;;;;;;5070513;28;20086;-72
2023/01/15 09:39:32;;;;;;;6.47;4.43;;;17.90;99.90;;;;;;5069147;28;20035;-72
2023/01/15 09:42:20;;;;;;;9.93;5.15;;;18.00;99.90;;;;;;5070627;28;20079;-71
2023/01/15 09:45:10;;;;;;;7.75;6.10;;;18.10;99.90;;;;;;5070874;28;20496;-72
2023/01/15 09:47:37;;;;;;;11.13;6.40;;;18.00;99.90;;;;;;5069200;28;20063;-72
2023/01/15 09:50:26;;;;;;;17.95;7.53;;;18.00;99.90;;;;;;5070667;28;20044;-71
2023/01/15 09:53:16;;;;;;;9.05;5.53;;;18.10;99.90;;;;;;5036392;28;20049;-72
2023/01/15 09:55:49;;;;;;;10.57;5.35;;;18.30;99.90;;;;;;5052830;28;20055;-72
2023/01/15 09:58:19;;;;;;;12.82;8.65;;;18.40;99.90;;;;;;5035886;28;20049;-73
2023/01/15 10:00:50;;;;;;;18.10;13.07;;;18.40;99.70;;;;;;5069334;28;20474;-72
2023/01/15 10:03:27;;;;;;;14.65;10.00;;;18.60;99.80;;;;;;5069189;28;20135;-73
2023/01/15 10:06:15;;;;;;;12.93;7.45;;;18.70;99.20;;;;;;5069106;28;20407;-72
2023/01/15 10:08:46;;;;;;;12.48;4.97;;;18.80;99.40;;;;;;5052569;28;20781;-72
2023/01/15 10:11:14;;;;;;;7.63;5.60;;;19.00;99.20;;;;;;5051765;28;20673;-73
2023/01/15 10:13:45;;;;;;;11.90;7.88;;;19.10;99.50;;;;;;5070167;28;20087;-72
2023/01/15 10:16:28;;;;;;;8.57;5.65;;;19.20;99.20;;;;;;5069147;28;20136;-72
2023/01/15 10:19:01;;;;;;;8.25;4.72;;;19.20;98.00;;;;;;5068550;28;20048;-72
2023/01/15 10:21:49;;;;;;;7.53;5.00;;;19.40;98.20;;;;;;5068677;28;20048;-72
2023/01/15 10:24:18;;;;;;;8.80;5.72;;;19.40;98.50;;;;;;5052443;28;20412;-72
2023/01/15 10:26:57;;;;;;;8.48;5.60;;;19.40;98.10;;;;;;5052598;28;20052;-72
2023/01/15 10:29:49;;;;;;;7.55;4.40;;;19.40;98.10;;;;;;5053102;28;20044;-73
2023/01/15 10:32:23;;;;;;;6.30;4.80;;;19.30;98.30;;;;;;5070004;28;20062;-73
2023/01/15 10:35:09;;;;;;;6.10;3.70;;;19.30;98.00;;;;;;5068619;28;20078;-71
2023/01/15 10:37:49;;;;;;;5.97;3.92;;;19.30;98.20;;;;;;5068377;28;20048;-73
2023/01/15 10:40:23;;;;;;;6.90;4.00;;;19.30;98.40;;;;;;5051890;28;20052;-73
2023/01/15 10:43:14;;;;;;;6.50;4.18;;;19.20;98.20;;;;;;5068960;28;20037;-72
2023/01/15 10:46:01;;;;;;;6.70;3.83;;;19.10;98.20;;;;;;5068733;28;20076;-72
2023/01/15 10:48:29;;;;;;;5.60;4.10;;;19.10;98.30;;;;;;5068740;28;20045;-71
2023/01/15 10:51:01;;;;;;;7.60;5.63;;;19.10;98.50;;;;;;5035332;28;20584;-73
2023/01/15 10:53:36;;;;;;;10.88;4.45;;;19.10;98.30;;;;;;5068654;28;20160;-71
2023/01/15 10:56:35;;;;;;;4.85;3.50;;;19.00;98.20;;;;;;5051976;28;20044;-72
2023/01/15 10:59:14;;;;;;;7.25;4.88;;;18.90;98.30;;;;;;5069342;28;20157;-73
2023/01/15 11:01:42;;;;;;;13.18;5.50;;;19.00;98.40;;;;;;5048543;28;20049;-72
2023/01/15 11:04:12;;;;;;;4.95;3.97;;;18.90;98.20;;;;;;5049955;28;20128;-73
2023/01/15 11:06:41;;;;;;;8.63;4.65;;;18.90;98.00;;;;;;5048614;28;20048;-72
2023/01/15 11:09:21;;;;;;;6.43;4.80;;;18.90;97.30;;;;;;5053489;28;20060;-73
2023/01/15 11:20:33;;;;;;;7.38;5.53;;;18.80;97.40;;;;;;5071988;28;20043;-72
2023/01/15 11:23:10;;;;;;;5.18;3.22;;;18.90;97.40;;;;;;5070391;28;20074;-73
2023/01/15 11:25:47;;;;;;;7.47;4.22;;;18.90;97.30;;;;;;5073660;28;20114;-73
2023/01/15 11:28:16;;;;;;;5.78;4.00;;;18.90;97.10;;;;;;5073327;28;20149;-71
2023/01/15 11:30:54;;;;;;;5.47;3.10;;;18.90;97.60;;;;;;5038958;28;20102;-72
2023/01/15 11:33:26;;;;;;;4.53;2.92;;;18.80;97.20;;;;;;5055276;28;20394;-73
2023/01/15 11:36:00;;;;;;;4.88;3.13;;;18.90;97.20;;;;;;5105949;28;20045;-72
2023/01/15 11:38:43;;;;;;;7.57;3.78;;;18.90;97.20;;;;;;5073185;28;20048;-72
2023/01/15 11:52:56;;;;;;;5.80;4.28;;;18.90;97.20;;;;;;5054979;28;20060;-71
2023/01/15 11:55:26;;;;;;;5.95;3.85;;;18.90;97.10;;;;;;5072983;28;20094;-71
2023/01/15 11:57:55;;;;;;;5.20;2.60;;;18.90;97.00;;;;;;5072685;28;20041;-72
2023/01/15 12:00:26;;;;;;;4.82;3.38;;;18.90;96.60;;;;;;5071699;28;20498;-73
2023/01/15 12:03:00;;;;;;;5.80;3.45;;;18.90;96.80;;;;;;5072789;28;20041;-73
2023/01/15 12:05:30;;;;;;;6.78;4.28;;;18.80;97.10;;;;;;5070716;28;20129;-72
2023/01/15 12:08:11;;;;;;;4.55;3.00;;;18.80;97.30;;;;;;5071173;28;20049;-72
2023/01/15 12:11:03;;;;;;;3.83;3.05;;;18.80;96.80;;;;;;5072347;28;20044;-72
2023/01/15 12:14:08;;;;;;;3.60;2.28;;;18.80;95.90;;;;;;5071362;28;20079;-73
2023/01/15 12:16:52;;;;;;;4.97;2.50;;;18.70;95.90;;;;;;5071292;28;20076;-72
2023/01/15 12:19:31;;;;;;;4.38;3.00;;;18.60;96.20;;;;;;5065884;28;20052;-72
2023/01/15 12:22:01;;;;;;;5.68;3.60;;;18.70;96.30;;;;;;5071114;28;20051;-72
2023/01/15 12:24:55;;;;;;;7.50;3.28;;;18.70;96.10;;;;;;5071117;28;20041;-72
2023/01/15 12:27:29;;;;;;;7.80;5.03;;;18.70;96.20;;;;;;5066428;28;20456;-72
2023/01/15 12:30:15;;;;;;;7.20;5.68;;;18.70;96.20;;;;;;5054569;28;20521;-73
2023/01/15 12:32:51;;;;;;;4.72;2.80;;;18.70;96.10;;;;;;5070808;28;20394;-72
2023/01/15 12:35:49;;;;;;;;;;;18.70;95.70;;;;;;5072392;28;20128;-72
2023/01/15 12:38:45;;;;;;;4.30;2.77;;;18.70;95.70;;;;;;5067169;28;19955;-72
2023/01/15 12:41:18;;;;;;;3.53;2.42;;;18.70;95.70;;;;;;5053870;28;20398;-73
2023/01/15 12:46:43;;;;;;;6.15;3.00;;;18.60;95.00;;;;;;5050597;28;20048;-73
2023/01/15 12:50:01;;;;;;;3.30;2.30;;;18.40;95.30;;;;;;5068887;28;20049;-72
2023/01/15 12:52:36;;;;;;;3.88;2.17;;;18.40;95.20;;;;;;5038947;28;20041;-72
2023/01/15 12:55:18;;;;;;;6.88;2.75;;;18.10;95.40;;;;;;5051948;28;20072;-73
2023/01/15 12:57:49;;;;;;;4.18;2.47;;;17.90;95.90;;;;;;5056798;28;20093;-72
2023/01/15 13:00:29;;;;;;;2.78;1.95;;;17.80;95.90;;;;;;5053521;28;20371;-73
2023/01/15 13:03:26;;;;;;;4.97;2.22;;;17.70;96.00;;;;;;5071529;28;20045;-73
2023/01/15 13:05:59;;;;;;;3.70;2.03;;;17.70;95.80;;;;;;5068731;28;20049;-72
2023/01/15 13:08:36;;;;;;;3.90;2.63;;;17.50;95.90;;;;;;5071400;28;20113;-73
2023/01/15 13:11:06;;;;;;;3.88;3.10;;;17.60;96.00;;;;;;5071455;28;20090;-73
2023/01/15 13:13:37;;;;;;;3.38;2.08;;;17.50;95.80;;;;;;5052763;28;20048;-72
2023/01/15 13:16:23;;;;;;;6.00;3.13;;;17.40;96.50;;;;;;5053781;28;20071;-73
2023/01/15 13:19:21;;;;;;;4.45;3.17;;;17.40;96.90;;;;;;5069552;28;20052;-72
2023/01/15 13:21:54;;;;;;;5.63;3.30;;;17.50;96.90;;;;;;5051440;28;20479;-72
2023/01/15 13:24:27;;;;;;;4.63;3.05;;;17.60;96.80;;;;;;5049991;28;20437;-72
2023/01/15 13:27:33;;;;;;;5.43;3.47;;;17.60;96.70;;;;;;5050099;28;20045;-72
2023/01/15 13:30:36;;;;;;;4.85;2.72;;;17.60;96.70;;;;;;5036966;28;20063;-73
2023/01/15 13:33:18;;;;;;;4.40;3.03;;;17.60;96.90;;;;;;5070879;28;20044;-73
2023/01/15 13:35:50;;;;;;;4.22;2.65;;;17.60;96.90;;;;;;5071178;28;20044;-72
2023/01/15 13:38:23;;;;;;;4.90;3.38;;;17.60;96.90;;;;;;5069404;28;20068;-72
2023/01/15 13:40:53;;;;;;;4.05;2.72;;;17.60;97.00;;;;;;5053039;28;20090;-72
2023/01/15 13:43:26;;;;;;;5.40;2.78;;;17.40;96.00;;;;;;5070675;28;20559;-73
2023/01/15 13:45:56;;;;;;;4.68;3.35;;;17.30;96.30;;;;;;5036581;28;20162;-72
2023/01/15 13:48:32;;;;;;;6.70;4.00;;;17.30;96.40;;;;;;5070640;28;20496;-72
2023/01/15 13:51:03;;;;;;;4.32;2.88;;;17.10;96.30;;;;;;5069170;28;20044;-72
2023/01/15 13:53:37;;;;;;;3.08;2.60;;;17.10;96.40;;;;;;5069304;28;20074;-72
2023/01/15 13:56:13;;;;;;;5.53;3.35;;;17.10;97.00;;;;;;5052860;28;20054;-72
2023/01/15 13:58:57;;;;;;;7.13;3.47;;;16.90;96.70;;;;;;5070293;28;20059;-72
2023/01/15 14:01:32;;;;;;;6.22;4.47;;;16.50;96.90;;;;;;5052309;28;20395;-72
2023/01/15 14:04:01;;;;;;;14.55;9.07;;;16.40;97.10;;;;;;5052705;28;20040;-72
2023/01/15 14:06:47;;;;;;;9.20;6.63;;;16.10;97.60;;;;;;5068959;28;20143;-72
2023/01/15 14:09:17;;;;;;;4.45;2.63;;;16.10;97.70;;;;;;5069063;28;20053;-72